sensor_id;sensor_type;location;lat;lon;timestamp;pressure;altitude;pressure_sealevel;temperature;humidity
30682;BME280;17439;48.092;11.842;2023-03-03T00:00:01;95485.44;;;2.39;70.87
30682;BME280;17439;48.092;11.842;2023-03-03T00:02:37;95483.84;;;2.38;70.66
30682;BME280;17439;48.092;11.842;2023-03-03T00:05:04;95479.56;;;2.37;70.86
30682;BME280;17439;48.092;11.842;2023-03-03T00:07:31;95491.31;;;2.36;70.75
30682;BME280;17439;48.092;11.842;2023-03-03T00:09:58;95488.66;;;2.36;70.86
30682;BME280;17439;48.092;11.842;2023-03-03T00:12:29;95484.34;;;2.35;70.39
30682;BME280;17439;48.092;11.842;2023-03-03T00:14:56;95482.75;;;2.34;70.83
30682;BME280;17439;48.092;11.842;2023-03-03T00:17:25;95478.44;;;2.33;70.56
30682;BME280;17439;48.092;11.842;2023-03-03T00:19:53;95474.97;;;2.32;70.75
30682;BME280;17439;48.092;11.842;2023-03-03T00:22:29;95481.13;;;2.33;70.41
30682;BME280;17439;48.092;11.842;2023-03-03T00:27:48;95484.31;;;2.30;70.68
30682;BME280;17439;48.092;11.842;2023-03-03T00:30:25;95484.56;;;2.28;70.25
30682;BME280;17439;48.092;11.842;2023-03-03T00:32:54;95483.78;;;2.28;70.75
30682;BME280;17439;48.092;11.842;2023-03-03T00:35:29;95478.13;;;2.24;70.46
30682;BME280;17439;48.092;11.842;2023-03-03T00:37:58;95478.94;;;2.25;70.84
30682;BME280;17439;48.092;11.842;2023-03-03T00:40:31;95480.78;;;2.24;70.61
30682;BME280;17439;48.092;11.842;2023-03-03T00:42:59;95476.53;;;2.23;71.27
30682;BME280;17439;48.092;11.842;2023-03-03T00:45:32;95478.09;;;2.19;70.95
30682;BME280;17439;48.092;11.842;2023-03-03T00:51:25;95485.31;;;2.18;70.92
30682;BME280;17439;48.092;11.842;2023-03-03T00:53:53;95481.28;;;2.21;71.74
30682;BME280;17439;48.092;11.842;2023-03-03T00:56:20;95480.25;;;2.22;71.55
30682;BME280;17439;48.092;11.842;2023-03-03T00:58:47;95492.81;;;2.22;71.53
30682;BME280;17439;48.092;11.842;2023-03-03T01:01:17;95486.66;;;2.21;71.22
30682;BME280;17439;48.092;11.842;2023-03-03T01:03:48;95482.91;;;2.22;71.23
30682;BME280;17439;48.092;11.842;2023-03-03T01:06:15;95490.16;;;2.22;71.35
30682;BME280;17439;48.092;11.842;2023-03-03T01:08:41;95490.16;;;2.22;71.21
30682;BME280;17439;48.092;11.842;2023-03-03T01:11:12;95495.50;;;2.22;71.00
30682;BME280;17439;48.092;11.842;2023-03-03T01:13:43;95500.03;;;2.21;71.20
30682;BME280;17439;48.092;11.842;2023-03-03T01:16:11;95497.34;;;2.21;70.99
30682;BME280;17439;48.092;11.842;2023-03-03T01:18:38;95498.44;;;2.20;70.96
30682;BME280;17439;48.092;11.842;2023-03-03T01:21:05;95486.94;;;2.20;70.94
30682;BME280;17439;48.092;11.842;2023-03-03T01:23:32;95485.56;;;2.17;70.88
30682;BME280;17439;48.092;11.842;2023-03-03T01:25:59;95490.13;;;2.16;70.90
30682;BME280;17439;48.092;11.842;2023-03-03T01:28:26;95484.78;;;2.16;70.96
30682;BME280;17439;48.092;11.842;2023-03-03T01:30:53;95480.47;;;2.15;70.71
30682;BME280;17439;48.092;11.842;2023-03-03T01:33:19;95482.34;;;2.15;70.79
30682;BME280;17439;48.092;11.842;2023-03-03T01:35:47;95486.88;;;2.14;70.75
30682;BME280;17439;48.092;11.842;2023-03-03T01:38:14;95485.28;;;2.13;70.68
30682;BME280;17439;48.092;11.842;2023-03-03T01:40:41;95479.34;;;2.11;70.56
30682;BME280;17439;48.092;11.842;2023-03-03T01:43:11;95475.09;;;2.10;70.38
30682;BME280;17439;48.092;11.842;2023-03-03T01:46:19;95476.16;;;2.09;70.24
30682;BME280;17439;48.092;11.842;2023-03-03T01:48:31;95478.03;;;2.09;70.63
30682;BME280;17439;48.092;11.842;2023-03-03T01:51:02;95472.09;;;2.07;70.43
30682;BME280;17439;48.092;11.842;2023-03-03T01:53:33;95473.19;;;2.06;70.51
30682;BME280;17439;48.092;11.842;2023-03-03T01:56:04;95465.97;;;2.06;70.43
30682;BME280;17439;48.092;11.842;2023-03-03T01:58:34;95468.88;;;2.05;70.38
30682;BME280;17439;48.092;11.842;2023-03-03T02:01:07;95469.13;;;2.03;70.34
30682;BME280;17439;48.092;11.842;2023-03-03T02:03:34;95473.94;;;2.01;70.58
30682;BME280;17439;48.092;11.842;2023-03-03T02:06:05;95466.97;;;2.00;70.43
30682;BME280;17439;48.092;11.842;2023-03-03T02:11:22;95471.78;;;1.98;70.32
30682;BME280;17439;48.092;11.842;2023-03-03T02:13:48;95463.75;;;1.98;70.43
30682;BME280;17439;48.092;11.842;2023-03-03T02:16:15;95460.53;;;1.96;70.41
30682;BME280;17439;48.092;11.842;2023-03-03T02:18:42;95469.63;;;1.95;70.42
30682;BME280;17439;48.092;11.842;2023-03-03T02:21:11;95469.63;;;1.95;70.20
30682;BME280;17439;48.092;11.842;2023-03-03T02:26:30;95471.19;;;1.91;70.21
30682;BME280;17439;48.092;11.842;2023-03-03T02:29:03;95470.38;;;1.90;70.17
30682;BME280;17439;48.092;11.842;2023-03-03T02:31:30;95468.75;;;1.89;70.25
30682;BME280;17439;48.092;11.842;2023-03-03T02:33:58;95467.16;;;1.88;70.35
30682;BME280;17439;48.092;11.842;2023-03-03T02:36:27;95472.50;;;1.88;70.24
30682;BME280;17439;48.092;11.842;2023-03-03T02:39:13;95469.00;;;1.88;69.80
30682;BME280;17439;48.092;11.842;2023-03-03T02:44:36;95470.88;;;1.87;70.30
30682;BME280;17439;48.092;11.842;2023-03-03T02:47:03;95476.25;;;1.87;70.24
30682;BME280;17439;48.092;11.842;2023-03-03T02:49:32;95474.91;;;1.85;69.85
30682;BME280;17439;48.092;11.842;2023-03-03T02:52:01;95475.94;;;1.84;70.07
30682;BME280;17439;48.092;11.842;2023-03-03T02:54:29;95472.47;;;1.83;69.96
30682;BME280;17439;48.092;11.842;2023-03-03T02:56:59;95472.72;;;1.81;69.98
30682;BME280;17439;48.092;11.842;2023-03-03T02:59:26;95471.09;;;1.80;69.91
30682;BME280;17439;48.092;11.842;2023-03-03T03:01:55;95469.75;;;1.78;69.88
30682;BME280;17439;48.092;11.842;2023-03-03T03:04:24;95463.06;;;1.75;69.77
30682;BME280;17439;48.092;11.842;2023-03-03T03:06:53;95465.72;;;1.75;69.98
30682;BME280;17439;48.092;11.842;2023-03-03T03:09:22;95462.47;;;1.73;70.15
30682;BME280;17439;48.092;11.842;2023-03-03T03:11:50;95465.41;;;1.72;70.11
30682;BME280;17439;48.092;11.842;2023-03-03T03:14:20;95454.97;;;1.70;70.22
30682;BME280;17439;48.092;11.842;2023-03-03T03:16:47;95456.03;;;1.69;70.31
30682;BME280;17439;48.092;11.842;2023-03-03T03:19:13;95456.03;;;1.69;70.52
30682;BME280;17439;48.092;11.842;2023-03-03T03:21:41;95466.75;;;1.69;70.68
30682;BME280;17439;48.092;11.842;2023-03-03T03:24:09;95465.66;;;1.70;70.91
30682;BME280;17439;48.092;11.842;2023-03-03T03:26:39;95460.31;;;1.70;71.14
30682;BME280;17439;48.092;11.842;2023-03-03T03:29:06;95459.25;;;1.71;71.29
30682;BME280;17439;48.092;11.842;2023-03-03T03:31:33;95464.09;;;1.74;71.56
30682;BME280;17439;48.092;11.842;2023-03-03T03:34:01;95465.72;;;1.75;71.70
30682;BME280;17439;48.092;11.842;2023-03-03T03:36:28;95470.31;;;1.80;71.99
30682;BME280;17439;48.092;11.842;2023-03-03T03:38:55;95479.66;;;1.83;72.41
30682;BME280;17439;48.092;11.842;2023-03-03T03:41:22;95479.69;;;1.88;72.61
30682;BME280;17439;48.092;11.842;2023-03-03T03:43:49;95475.47;;;1.92;72.63
30682;BME280;17439;48.092;11.842;2023-03-03T03:46:15;95472.03;;;1.96;72.89
30682;BME280;17439;48.092;11.842;2023-03-03T03:48:42;95477.41;;;2.02;73.00
30682;BME280;17439;48.092;11.842;2023-03-03T03:51:11;95477.44;;;2.07;73.25
30682;BME280;17439;48.092;11.842;2023-03-03T03:53:39;95476.94;;;2.10;73.32
30682;BME280;17439;48.092;11.842;2023-03-03T03:56:06;95471.41;;;2.16;73.38
30682;BME280;17439;48.092;11.842;2023-03-03T03:58:33;95468.75;;;2.22;73.31
30682;BME280;17439;48.092;11.842;2023-03-03T04:01:05;95475.75;;;2.28;73.13
30682;BME280;17439;48.092;11.842;2023-03-03T04:03:36;95468.81;;;2.32;73.95
30682;BME280;17439;48.092;11.842;2023-03-03T04:06:08;95470.44;;;2.38;73.99
30682;BME280;17439;48.092;11.842;2023-03-03T04:08:34;95472.09;;;2.44;73.95
30682;BME280;17439;48.092;11.842;2023-03-03T04:11:02;95472.13;;;2.49;73.89
30682;BME280;17439;48.092;11.842;2023-03-03T04:13:28;95467.63;;;2.55;74.17
30682;BME280;17439;48.092;11.842;2023-03-03T04:15:55;95471.94;;;2.61;73.81
30682;BME280;17439;48.092;11.842;2023-03-03T04:18:22;95472.22;;;2.65;73.82
30682;BME280;17439;48.092;11.842;2023-03-03T04:20:48;95466.09;;;2.69;73.87
30682;BME280;17439;48.092;11.842;2023-03-03T04:23:15;95473.34;;;2.74;73.86
30682;BME280;17439;48.092;11.842;2023-03-03T04:25:42;95470.94;;;2.78;73.90
30682;BME280;17439;48.092;11.842;2023-03-03T04:28:14;95474.72;;;2.82;73.76
30682;BME280;17439;48.092;11.842;2023-03-03T04:30:41;95471.00;;;2.88;73.99
30682;BME280;17439;48.092;11.842;2023-03-03T04:33:09;95465.09;;;2.91;73.96
30682;BME280;17439;48.092;11.842;2023-03-03T04:35:38;95475.03;;;2.96;74.17
30682;BME280;17439;48.092;11.842;2023-03-03T04:38:05;95475.34;;;2.99;74.03
30682;BME280;17439;48.092;11.842;2023-03-03T04:40:33;95480.16;;;3.02;73.90
30682;BME280;17439;48.092;11.842;2023-03-03T04:43:01;95484.72;;;3.07;74.06
30682;BME280;17439;48.092;11.842;2023-03-03T04:45:28;95476.97;;;3.11;74.00
30682;BME280;17439;48.092;11.842;2023-03-03T04:47:55;95471.34;;;3.12;73.57
30682;BME280;17439;48.092;11.842;2023-03-03T04:50:22;95475.38;;;3.15;73.88
30682;BME280;17439;48.092;11.842;2023-03-03T04:52:49;95467.06;;;3.16;73.49
30682;BME280;17439;48.092;11.842;2023-03-03T04:55:16;95474.31;;;3.16;73.17
30682;BME280;17439;48.092;11.842;2023-03-03T04:57:45;95473.00;;;3.18;73.66
30682;BME280;17439;48.092;11.842;2023-03-03T05:00:14;95472.47;;;3.21;72.83
30682;BME280;17439;48.092;11.842;2023-03-03T05:02:41;95472.16;;;3.23;73.83
30682;BME280;17439;48.092;11.842;2023-03-03T05:05:08;95470.06;;;3.25;73.73
30682;BME280;17439;48.092;11.842;2023-03-03T05:07:35;95476.75;;;3.27;74.11
30682;BME280;17439;48.092;11.842;2023-03-03T05:10:01;95471.69;;;3.31;73.95
30682;BME280;17439;48.092;11.842;2023-03-03T05:12:28;95472.47;;;3.32;73.92
30682;BME280;17439;48.092;11.842;2023-03-03T05:14:55;95472.22;;;3.33;73.87
30682;BME280;17439;48.092;11.842;2023-03-03T05:17:21;95469.28;;;3.35;73.82
30682;BME280;17439;48.092;11.842;2023-03-03T05:19:48;95465.28;;;3.37;73.94
30682;BME280;17439;48.092;11.842;2023-03-03T05:22:14;95470.38;;;3.39;73.96
30682;BME280;17439;48.092;11.842;2023-03-03T05:24:41;95475.44;;;3.40;74.05
30682;BME280;17439;48.092;11.842;2023-03-03T05:27:08;95479.47;;;3.43;73.92
30682;BME280;17439;48.092;11.842;2023-03-03T05:29:34;95470.09;;;3.45;73.89
30682;BME280;17439;48.092;11.842;2023-03-03T05:32:01;95473.59;;;3.46;73.79
30682;BME280;17439;48.092;11.842;2023-03-03T05:34:27;95468.75;;;3.48;73.79
30682;BME280;17439;48.092;11.842;2023-03-03T05:36:54;95477.09;;;3.52;73.85
30682;BME280;17439;48.092;11.842;2023-03-03T05:39:20;95481.38;;;3.53;74.02
30682;BME280;17439;48.092;11.842;2023-03-03T05:41:47;95481.09;;;3.54;73.84
30682;BME280;17439;48.092;11.842;2023-03-03T05:44:14;95478.97;;;3.56;73.89
30682;BME280;17439;48.092;11.842;2023-03-03T05:46:41;95477.91;;;3.57;73.69
30682;BME280;17439;48.092;11.842;2023-03-03T05:49:07;95488.09;;;3.60;73.93
30682;BME280;17439;48.092;11.842;2023-03-03T05:51:34;95496.41;;;3.64;74.00
30682;BME280;17439;48.092;11.842;2023-03-03T05:54:01;95496.97;;;3.66;74.14
30682;BME280;17439;48.092;11.842;2023-03-03T05:56:27;95493.75;;;3.69;73.75
30682;BME280;17439;48.092;11.842;2023-03-03T05:58:54;95498.84;;;3.71;74.11
30682;BME280;17439;48.092;11.842;2023-03-03T06:01:20;95507.41;;;3.73;74.05
30682;BME280;17439;48.092;11.842;2023-03-03T06:03:47;95502.59;;;3.75;73.96
30682;BME280;17439;48.092;11.842;2023-03-03T06:06:14;95506.91;;;3.76;73.67
30682;BME280;17439;48.092;11.842;2023-03-03T06:08:40;95497.75;;;3.77;73.90
30682;BME280;17439;48.092;11.842;2023-03-03T06:11:07;95488.66;;;3.78;73.83
30682;BME280;17439;48.092;11.842;2023-03-03T06:13:34;95494.81;;;3.78;73.80
30682;BME280;17439;48.092;11.842;2023-03-03T06:16:04;95496.44;;;3.79;74.00
30682;BME280;17439;48.092;11.842;2023-03-03T06:18:31;95498.06;;;3.80;74.13
30682;BME280;17439;48.092;11.842;2023-03-03T06:20:57;95501.25;;;3.83;73.85
30682;BME280;17439;48.092;11.842;2023-03-03T06:23:24;95507.16;;;3.85;74.05
30682;BME280;17439;48.092;11.842;2023-03-03T06:25:51;95520.31;;;3.86;74.06
30682;BME280;17439;48.092;11.842;2023-03-03T06:28:17;95524.34;;;3.89;73.88
30682;BME280;17439;48.092;11.842;2023-03-03T06:30:44;95525.13;;;3.89;73.93
30682;BME280;17439;48.092;11.842;2023-03-03T06:33:10;95526.75;;;3.90;73.99
30682;BME280;17439;48.092;11.842;2023-03-03T06:35:37;95526.75;;;3.90;73.97
30682;BME280;17439;48.092;11.842;2023-03-03T06:38:04;95533.44;;;3.93;74.23
30682;BME280;17439;48.092;11.842;2023-03-03T06:40:30;95525.13;;;3.94;74.04
30682;BME280;17439;48.092;11.842;2023-03-03T06:42:57;95520.34;;;3.96;73.97
30682;BME280;17439;48.092;11.842;2023-03-03T06:45:23;95523.00;;;3.96;73.70
30682;BME280;17439;48.092;11.842;2023-03-03T06:47:50;95529.97;;;3.97;73.78
30682;BME280;17439;48.092;11.842;2023-03-03T06:50:19;95523.00;;;3.96;72.84
30682;BME280;17439;48.092;11.842;2023-03-03T06:52:45;95529.44;;;4.00;73.75
30682;BME280;17439;48.092;11.842;2023-03-03T06:55:17;95530.53;;;4.05;72.89
30682;BME280;17439;48.092;11.842;2023-03-03T06:57:46;95534.84;;;4.06;74.11
30682;BME280;17439;48.092;11.842;2023-03-03T07:00:26;95534.84;;;4.06;73.20
30682;BME280;17439;48.092;11.842;2023-03-03T07:03:04;95536.44;;;4.07;72.09
30682;BME280;17439;48.092;11.842;2023-03-03T07:05:33;95538.56;;;4.10;73.90
30682;BME280;17439;48.092;11.842;2023-03-03T07:07:59;95538.31;;;4.11;74.25
30682;BME280;17439;48.092;11.842;2023-03-03T07:10:29;95535.88;;;4.15;73.73
30682;BME280;17439;48.092;11.842;2023-03-03T07:13:01;95547.19;;;4.17;73.46
30682;BME280;17439;48.092;11.842;2023-03-03T07:15:33;95542.34;;;4.19;73.82
30682;BME280;17439;48.092;11.842;2023-03-03T07:18:01;95545.56;;;4.21;74.22
30682;BME280;17439;48.092;11.842;2023-03-03T07:20:40;95549.88;;;4.22;71.33
30682;BME280;17439;48.092;11.842;2023-03-03T07:23:20;95554.69;;;4.25;71.78
30682;BME280;17439;48.092;11.842;2023-03-03T07:25:46;95563.81;;;4.29;74.49
30682;BME280;17439;48.092;11.842;2023-03-03T07:28:23;95562.47;;;4.32;72.13
30682;BME280;17439;48.092;11.842;2023-03-03T07:30:55;95561.16;;;4.34;72.94
30682;BME280;17439;48.092;11.842;2023-03-03T07:33:28;95564.63;;;4.40;72.88
30682;BME280;17439;48.092;11.842;2023-03-03T07:35:56;95561.13;;;4.45;74.33
30682;BME280;17439;48.092;11.842;2023-03-03T07:38:34;95568.66;;;4.48;71.97
30682;BME280;17439;48.092;11.842;2023-03-03T07:41:05;95568.91;;;4.51;73.99
30682;BME280;17439;48.092;11.842;2023-03-03T07:43:43;95578.06;;;4.56;73.13
30682;BME280;17439;48.092;11.842;2023-03-03T07:46:22;95585.31;;;4.60;73.82
30682;BME280;17439;48.092;11.842;2023-03-03T07:48:49;95582.09;;;4.63;74.32
30682;BME280;17439;48.092;11.842;2023-03-03T07:53:47;95583.69;;;4.69;74.25
30682;BME280;17439;48.092;11.842;2023-03-03T07:58:46;95583.69;;;4.75;74.72
30682;BME280;17439;48.092;11.842;2023-03-03T08:01:38;95591.19;;;4.78;71.61
30682;BME280;17439;48.092;11.842;2023-03-03T08:04:16;95599.25;;;4.83;72.49
30682;BME280;17439;48.092;11.842;2023-03-03T08:06:44;95586.09;;;4.81;70.88
30682;BME280;17439;48.092;11.842;2023-03-03T08:14:35;95585.25;;;5.06;75.06
30682;BME280;17439;48.092;11.842;2023-03-03T08:17:22;95583.59;;;5.11;69.88
30682;BME280;17439;48.092;11.842;2023-03-03T08:19:50;95586.81;;;5.18;75.32
30682;BME280;17439;48.092;11.842;2023-03-03T08:22:24;95583.56;;;5.26;75.47
30682;BME280;17439;48.092;11.842;2023-03-03T08:24:53;95587.84;;;5.32;75.57
30682;BME280;17439;48.092;11.842;2023-03-03T08:27:20;95583.28;;;5.38;75.43
30682;BME280;17439;48.092;11.842;2023-03-03T08:29:46;95585.66;;;5.44;75.34
30682;BME280;17439;48.092;11.842;2023-03-03T08:32:13;95586.72;;;5.49;75.00
30682;BME280;17439;48.092;11.842;2023-03-03T08:34:40;95581.84;;;5.56;75.02
30682;BME280;17439;48.092;11.842;2023-03-03T08:37:07;95586.41;;;5.60;74.60
30682;BME280;17439;48.092;11.842;2023-03-03T08:39:33;95583.41;;;5.67;75.01
30682;BME280;17439;48.092;11.842;2023-03-03T08:42:00;95590.91;;;5.75;74.96
30682;BME280;17439;48.092;11.842;2023-03-03T08:44:27;95591.44;;;5.82;75.11
30682;BME280;17439;48.092;11.842;2023-03-03T08:46:53;95593.28;;;5.87;74.70
30682;BME280;17439;48.092;11.842;2023-03-03T08:49:20;95587.59;;;5.94;74.54
30682;BME280;17439;48.092;11.842;2023-03-03T08:51:47;95590.81;;;6.01;74.57
30682;BME280;17439;48.092;11.842;2023-03-03T08:54:13;95590.25;;;6.09;74.99
30682;BME280;17439;48.092;11.842;2023-03-03T08:56:40;95602.00;;;6.18;75.03
30682;BME280;17439;48.092;11.842;2023-03-03T08:59:06;95603.59;;;6.25;75.06
30682;BME280;17439;48.092;11.842;2023-03-03T09:01:33;95599.78;;;6.31;74.95
30682;BME280;17439;48.092;11.842;2023-03-03T09:04:00;95607.81;;;6.36;75.00
30682;BME280;17439;48.092;11.842;2023-03-03T09:06:27;95615.34;;;6.39;74.46
30682;BME280;17439;48.092;11.842;2023-03-03T09:08:54;95613.97;;;6.42;74.63
30682;BME280;17439;48.092;11.842;2023-03-03T09:11:25;95606.69;;;6.42;72.62
30682;BME280;17439;48.092;11.842;2023-03-03T09:14:13;95613.72;;;6.43;70.90
30682;BME280;17439;48.092;11.842;2023-03-03T09:16:49;95613.16;;;6.46;72.30
30682;BME280;17439;48.092;11.842;2023-03-03T09:19:25;95613.38;;;6.50;72.20
30682;BME280;17439;48.092;11.842;2023-03-03T09:21:54;95613.63;;;6.53;74.01
30682;BME280;17439;48.092;11.842;2023-03-03T09:26:51;95615.25;;;6.54;74.12
30682;BME280;17439;48.092;11.842;2023-03-03T09:29:26;95616.84;;;6.56;71.19
30682;BME280;17439;48.092;11.842;2023-03-03T09:31:57;95611.72;;;6.59;72.24
30682;BME280;17439;48.092;11.842;2023-03-03T09:34:39;95614.13;;;6.61;69.14
30682;BME280;17439;48.092;11.842;2023-03-03T09:37:21;95627.53;;;6.66;71.54
30682;BME280;17439;48.092;11.842;2023-03-03T09:39:54;95630.75;;;6.68;71.53
30682;BME280;17439;48.092;11.842;2023-03-03T09:42:30;95623.72;;;6.72;70.59
30682;BME280;17439;48.092;11.842;2023-03-03T09:48:11;95628.50;;;6.80;70.16
30682;BME280;17439;48.092;11.842;2023-03-03T09:51:17;95624.75;;;6.81;65.96
30682;BME280;17439;48.092;11.842;2023-03-03T09:56:46;95641.88;;;6.96;70.05
30682;BME280;17439;48.092;11.842;2023-03-03T09:59:24;95645.56;;;7.05;72.33
30682;BME280;17439;48.092;11.842;2023-03-03T10:08:16;95643.75;;;7.24;68.63
30682;BME280;17439;48.092;11.842;2023-03-03T10:10:55;95649.03;;;7.35;70.70
30682;BME280;17439;48.092;11.842;2023-03-03T10:19:01;95657.56;;;7.47;68.48
30682;BME280;17439;48.092;11.842;2023-03-03T10:21:35;95654.28;;;7.50;69.15
30682;BME280;17439;48.092;11.842;2023-03-03T10:24:28;95654.78;;;7.52;66.17
30682;BME280;17439;48.092;11.842;2023-03-03T10:27:08;95658.03;;;7.54;66.88
30682;BME280;17439;48.092;11.842;2023-03-03T10:30:00;95654.47;;;7.59;68.01
30682;BME280;17439;48.092;11.842;2023-03-03T10:32:48;95658.94;;;7.69;73.24
30682;BME280;17439;48.092;11.842;2023-03-03T10:35:28;95654.00;;;7.76;71.57
30682;BME280;17439;48.092;11.842;2023-03-03T10:47:14;95644.00;;;8.01;65.42
30682;BME280;17439;48.092;11.842;2023-03-03T10:52:31;95638.69;;;8.14;65.15
30682;BME280;17439;48.092;11.842;2023-03-03T11:01:25;95638.50;;;8.49;68.20
30682;BME280;17439;48.092;11.842;2023-03-03T11:06:52;95638.50;;;8.68;69.42
30682;BME280;17439;48.092;11.842;2023-03-03T11:09:43;95643.03;;;8.73;65.32
30682;BME280;17439;48.092;11.842;2023-03-03T11:12:23;95649.59;;;8.85;70.66
30682;BME280;17439;48.092;11.842;2023-03-03T11:20:38;95654.66;;;9.06;67.29
30682;BME280;17439;48.092;11.842;2023-03-03T11:23:42;95655.44;;;9.06;63.78
30682;BME280;17439;48.092;11.842;2023-03-03T11:26:26;95652.97;;;9.10;67.30
30682;BME280;17439;48.092;11.842;2023-03-03T11:29:03;95649.97;;;9.12;70.00
30682;BME280;17439;48.092;11.842;2023-03-03T11:31:53;95650.69;;;9.17;70.45
30682;BME280;17439;48.092;11.842;2023-03-03T11:35:19;95648.47;;;9.19;65.89
30682;BME280;17439;48.092;11.842;2023-03-03T11:40:24;95650.59;;;9.22;63.27
30682;BME280;17439;48.092;11.842;2023-03-03T11:43:14;95639.75;;;9.22;61.13
30682;BME280;17439;48.092;11.842;2023-03-03T11:46:24;95634.78;;;9.30;67.38
30682;BME280;17439;48.092;11.842;2023-03-03T11:51:47;95613.53;;;9.37;66.00
30682;BME280;17439;48.092;11.842;2023-03-03T11:54:26;95624.00;;;9.43;64.91
30682;BME280;17439;48.092;11.842;2023-03-03T12:00:30;95605.34;;;9.56;64.69
30682;BME280;17439;48.092;11.842;2023-03-03T12:03:17;95601.97;;;9.64;65.51
30682;BME280;17439;48.092;11.842;2023-03-03T12:11:48;95604.53;;;9.97;69.06
30682;BME280;17439;48.092;11.842;2023-03-03T12:14:44;95604.94;;;10.04;67.44
30682;BME280;17439;48.092;11.842;2023-03-03T12:17:47;95601.50;;;10.12;63.65
30682;BME280;17439;48.092;11.842;2023-03-03T12:26:16;95600.00;;;10.06;62.14
30682;BME280;17439;48.092;11.842;2023-03-03T12:29:03;95597.59;;;10.05;62.00
30682;BME280;17439;48.092;11.842;2023-03-03T12:31:41;95592.97;;;10.05;63.34
30682;BME280;17439;48.092;11.842;2023-03-03T12:39:50;95584.63;;;10.15;62.03
30682;BME280;17439;48.092;11.842;2023-03-03T12:45:08;95594.03;;;10.32;63.64
30682;BME280;17439;48.092;11.842;2023-03-03T12:47:45;95586.75;;;10.32;61.67
30682;BME280;17439;48.092;11.842;2023-03-03T12:55:57;95586.94;;;10.36;58.68
30682;BME280;17439;48.092;11.842;2023-03-03T13:01:36;95593.00;;;10.42;59.14
30682;BME280;17439;48.092;11.842;2023-03-03T13:04:35;95591.78;;;10.48;61.39
30682;BME280;17439;48.092;11.842;2023-03-03T13:15:46;95587.19;;;10.48;63.54
30682;BME280;17439;48.092;11.842;2023-03-03T13:18:28;95586.31;;;10.39;61.56
30682;BME280;17439;48.092;11.842;2023-03-03T13:23:46;95593.66;;;10.25;58.75
30682;BME280;17439;48.092;11.842;2023-03-03T13:29:07;95583.16;;;9.95;58.65
30682;BME280;17439;48.092;11.842;2023-03-03T13:31:45;95588.81;;;9.85;60.87
30682;BME280;17439;48.092;11.842;2023-03-03T13:34:34;95583.09;;;9.73;61.33
30682;BME280;17439;48.092;11.842;2023-03-03T13:37:28;95577.06;;;9.62;60.16
30682;BME280;17439;48.092;11.842;2023-03-03T13:42:32;95579.59;;;9.58;60.74
30682;BME280;17439;48.092;11.842;2023-03-03T13:45:22;95582.09;;;9.55;61.15
30682;BME280;17439;48.092;11.842;2023-03-03T13:48:08;95572.47;;;9.49;60.12
30682;BME280;17439;48.092;11.842;2023-03-03T13:51:09;95572.47;;;9.49;61.41
30682;BME280;17439;48.092;11.842;2023-03-03T13:53:49;95568.16;;;9.48;60.74
30682;BME280;17439;48.092;11.842;2023-03-03T13:59:09;95562.13;;;9.51;60.22
30682;BME280;17439;48.092;11.842;2023-03-03T14:05:45;95559.63;;;9.68;60.60
30682;BME280;17439;48.092;11.842;2023-03-03T14:10:32;95545.91;;;9.65;55.90
30682;BME280;17439;48.092;11.842;2023-03-03T14:13:04;95552.63;;;9.67;59.68
30682;BME280;17439;48.092;11.842;2023-03-03T14:15:47;95551.41;;;9.73;59.70
30682;BME280;17439;48.092;11.842;2023-03-03T14:21:35;95538.75;;;9.83;59.64
30682;BME280;17439;48.092;11.842;2023-03-03T14:24:11;95535.63;;;9.89;60.63
30682;BME280;17439;48.092;11.842;2023-03-03T14:27:14;95534.72;;;9.94;59.67
30682;BME280;17439;48.092;11.842;2023-03-03T14:29:46;95526.69;;;10.03;65.13
30682;BME280;17439;48.092;11.842;2023-03-03T14:32:22;95536.59;;;10.07;57.82
30682;BME280;17439;48.092;11.842;2023-03-03T14:35:16;95539.19;;;10.12;60.80
30682;BME280;17439;48.092;11.842;2023-03-03T14:37:45;95535.25;;;10.19;63.58
30682;BME280;17439;48.092;11.842;2023-03-03T14:45:37;95543.16;;;10.29;61.13
30682;BME280;17439;48.092;11.842;2023-03-03T14:48:16;95546.88;;;10.33;59.85
30682;BME280;17439;48.092;11.842;2023-03-03T14:50:56;95541.81;;;10.40;61.79
30682;BME280;17439;48.092;11.842;2023-03-03T14:53:41;95536.78;;;10.47;60.11
30682;BME280;17439;48.092;11.842;2023-03-03T14:56:25;95534.94;;;10.57;60.68
30682;BME280;17439;48.092;11.842;2023-03-03T15:01:40;95534.63;;;10.81;60.57
30682;BME280;17439;48.092;11.842;2023-03-03T15:06:44;95539.75;;;10.82;58.24
30682;BME280;17439;48.092;11.842;2023-03-03T15:09:37;95537.34;;;10.81;58.87
30682;BME280;17439;48.092;11.842;2023-03-03T15:15:07;95537.81;;;10.83;57.96
30682;BME280;17439;48.092;11.842;2023-03-03T15:17:53;95543.56;;;10.81;56.20
30682;BME280;17439;48.092;11.842;2023-03-03T15:20:42;95543.84;;;10.80;56.50
30682;BME280;17439;48.092;11.842;2023-03-03T15:23:43;95540.66;;;10.78;58.00
30682;BME280;17439;48.092;11.842;2023-03-03T15:29:40;95546.53;;;10.71;57.03
30682;BME280;17439;48.092;11.842;2023-03-03T15:38:11;95550.53;;;10.51;60.01
30682;BME280;17439;48.092;11.842;2023-03-03T15:40:56;95540.59;;;10.46;58.60
30682;BME280;17439;48.092;11.842;2023-03-03T15:43:48;95545.84;;;10.43;58.80
30682;BME280;17439;48.092;11.842;2023-03-03T15:49:38;95548.81;;;10.32;57.03
30682;BME280;17439;48.092;11.842;2023-03-03T15:58:02;95554.97;;;10.10;58.14
30682;BME280;17439;48.092;11.842;2023-03-03T16:03:38;95549.94;;;10.04;59.30
30682;BME280;17439;48.092;11.842;2023-03-03T16:06:44;95552.28;;;9.96;57.33
30682;BME280;17439;48.092;11.842;2023-03-03T16:09:46;95551.88;;;9.89;59.02
30682;BME280;17439;48.092;11.842;2023-03-03T16:12:36;95548.69;;;9.87;58.02
30682;BME280;17439;48.092;11.842;2023-03-03T16:15:25;95559.81;;;9.86;61.63
30682;BME280;17439;48.092;11.842;2023-03-03T16:23:46;95558.13;;;9.76;59.26
30682;BME280;17439;48.092;11.842;2023-03-03T16:29:15;95563.34;;;9.72;60.35
30682;BME280;17439;48.092;11.842;2023-03-03T16:34:21;95564.56;;;9.66;60.28